createdAt,value
2022-11-29T00:01:16.696Z,99.90
2022-11-29T00:03:43.896Z,99.90
2022-11-29T00:06:19.273Z,99.90
2022-11-29T00:08:48.121Z,99.90
2022-11-29T00:11:40.035Z,99.90
2022-11-29T00:14:09.144Z,99.90
2022-11-29T00:16:37.436Z,99.90
2022-11-29T00:19:04.766Z,99.90
2022-11-29T00:21:31.855Z,99.90
2022-11-29T00:24:00.424Z,99.90
2022-11-29T00:26:29.520Z,99.90
2022-11-29T00:28:56.349Z,99.90
2022-11-29T00:31:27.642Z,99.90
2022-11-29T00:33:54.408Z,99.90
2022-11-29T00:36:22.640Z,99.90
2022-11-29T00:38:50.534Z,99.90
2022-11-29T00:41:17.684Z,99.90
2022-11-29T00:43:44.692Z,99.90
2022-11-29T00:46:13.395Z,99.90
2022-11-29T00:48:40.239Z,99.90
2022-11-29T00:51:07.861Z,99.90
2022-11-29T00:53:38.613Z,99.90
2022-11-29T00:56:06.763Z,99.90
2022-11-29T00:58:33.556Z,99.90
2022-11-29T01:01:00.452Z,99.90
2022-11-29T01:03:27.268Z,99.90
2022-11-29T01:06:04.995Z,99.90
2022-11-29T01:08:36.217Z,99.90
2022-11-29T01:11:13.756Z,99.90
2022-11-29T01:13:42.105Z,99.90
2022-11-29T01:16:09.585Z,99.90
2022-11-29T01:18:39.123Z,99.90
2022-11-29T01:21:12.057Z,99.90
2022-11-29T01:23:40.212Z,99.90
2022-11-29T01:26:12.104Z,99.90
2022-11-29T01:28:41.619Z,99.90
2022-11-29T01:31:22.876Z,99.90
2022-11-29T01:33:54.800Z,99.90
2022-11-29T01:36:23.165Z,99.90
2022-11-29T01:38:49.953Z,99.90
2022-11-29T01:41:23.453Z,99.90
2022-11-29T01:44:14.373Z,99.90
2022-11-29T01:46:45.134Z,99.90
2022-11-29T01:49:16.798Z,99.90
2022-11-29T01:51:49.481Z,99.90
2022-11-29T01:54:17.158Z,99.90
2022-11-29T01:56:48.904Z,99.90
2022-11-29T01:59:22.065Z,99.90
2022-11-29T02:01:51.458Z,99.90
2022-11-29T02:04:19.752Z,99.90
2022-11-29T02:06:48.228Z,99.90
2022-11-29T02:09:20.256Z,99.90
2022-11-29T02:12:07.586Z,99.90
2022-11-29T02:14:47.935Z,99.90
2022-11-29T02:17:41.392Z,99.90
2022-11-29T02:20:20.164Z,99.90
2022-11-29T02:23:05.246Z,99.90
2022-11-29T02:26:09.676Z,99.90
2022-11-29T02:29:17.027Z,99.90
2022-11-29T02:32:02.125Z,99.90
2022-11-29T02:34:59.656Z,99.90
2022-11-29T02:38:10.375Z,99.90
2022-11-29T02:41:09.434Z,99.90
2022-11-29T02:44:26.707Z,99.90
2022-11-29T02:47:38.064Z,99.90
2022-11-29T02:50:54.982Z,99.90
2022-11-29T02:53:53.107Z,99.90
2022-11-29T02:56:45.255Z,99.90
2022-11-29T02:59:43.638Z,99.90
2022-11-29T03:02:35.250Z,99.90
2022-11-29T03:05:33.778Z,99.90
2022-11-29T03:08:38.021Z,99.90
2022-11-29T03:11:32.888Z,99.90
2022-11-29T03:14:18.099Z,99.90
2022-11-29T03:16:53.795Z,99.90
2022-11-29T03:19:57.222Z,99.90
2022-11-29T03:22:48.546Z,99.90
2022-11-29T03:25:43.769Z,99.90
2022-11-29T03:28:38.824Z,99.90
2022-11-29T03:31:31.821Z,99.90
2022-11-29T03:34:21.453Z,99.90
2022-11-29T03:37:12.705Z,99.90
2022-11-29T03:39:57.564Z,99.90
2022-11-29T03:42:30.786Z,99.90
2022-11-29T03:45:23.671Z,99.90
2022-11-29T03:48:20.207Z,99.90
2022-11-29T03:51:04.126Z,99.90
2022-11-29T03:53:54.878Z,99.90
2022-11-29T03:56:34.644Z,99.90
2022-11-29T03:59:34.955Z,99.90
2022-11-29T04:02:32.507Z,99.90
2022-11-29T04:05:21.423Z,99.90
2022-11-29T04:08:04.192Z,99.90
2022-11-29T04:10:41.752Z,99.90
2022-11-29T04:13:41.684Z,99.90
2022-11-29T04:16:45.539Z,99.90
2022-11-29T04:19:36.404Z,99.90
2022-11-29T04:23:03.933Z,99.90
2022-11-29T04:26:33.570Z,99.90
2022-11-29T04:29:54.513Z,99.90
2022-11-29T04:32:51.594Z,99.90
2022-11-29T04:35:36.509Z,99.90
2022-11-29T04:38:21.728Z,99.90
2022-11-29T04:41:15.803Z,99.90
2022-11-29T04:43:54.317Z,99.90
2022-11-29T04:46:48.866Z,99.90
2022-11-29T04:49:48.208Z,99.90
2022-11-29T04:52:26.711Z,99.90
2022-11-29T04:55:19.430Z,99.90
2022-11-29T04:58:34.680Z,99.90
2022-11-29T05:01:30.665Z,99.90
2022-11-29T05:04:24.715Z,99.90
2022-11-29T05:07:11.804Z,99.90
2022-11-29T05:10:21.516Z,99.90
2022-11-29T05:13:26.405Z,99.90
2022-11-29T05:16:17.865Z,99.90
2022-11-29T05:19:21.672Z,99.90
2022-11-29T05:22:01.183Z,99.90
2022-11-29T05:25:04.394Z,99.90
2022-11-29T05:27:51.589Z,99.90
2022-11-29T05:30:24.830Z,99.90
2022-11-29T05:32:56.667Z,99.90
2022-11-29T05:36:08.407Z,99.90
2022-11-29T05:39:12.579Z,99.90
2022-11-29T05:42:19.672Z,99.90
2022-11-29T05:45:01.059Z,99.90
2022-11-29T05:47:41.330Z,99.90
2022-11-29T05:50:39.618Z,99.90
2022-11-29T05:53:30.897Z,99.90
2022-11-29T05:56:18.858Z,99.90
2022-11-29T05:58:56.869Z,99.90
2022-11-29T06:01:32.521Z,99.90
2022-11-29T06:04:14.971Z,99.90
2022-11-29T06:07:22.921Z,99.90
2022-11-29T06:10:02.017Z,99.90
2022-11-29T06:12:35.675Z,99.90
2022-11-29T06:15:51.230Z,99.90
2022-11-29T06:19:04.485Z,99.90
2022-11-29T06:22:05.711Z,99.90
2022-11-29T06:24:47.765Z,99.90
2022-11-29T06:27:54.733Z,99.90
2022-11-29T06:30:27.632Z,99.90
2022-11-29T06:33:08.613Z,99.90
2022-11-29T06:35:48.690Z,99.90
2022-11-29T06:38:30.297Z,99.90
2022-11-29T06:41:02.217Z,99.90
2022-11-29T06:43:30.291Z,99.90
2022-11-29T06:46:45.412Z,99.90
2022-11-29T06:49:28.563Z,99.90
2022-11-29T06:52:32.273Z,99.90
2022-11-29T06:55:19.441Z,99.90
2022-11-29T06:58:34.491Z,99.90
2022-11-29T07:01:22.330Z,99.90
2022-11-29T07:04:35.356Z,99.90
2022-11-29T07:07:02.563Z,99.90
2022-11-29T07:09:34.832Z,99.90
2022-11-29T07:12:01.895Z,99.90
2022-11-29T07:14:29.105Z,99.90
2022-11-29T07:17:14.700Z,99.90
2022-11-29T07:20:18.064Z,99.90
2022-11-29T07:23:05.880Z,99.90
2022-11-29T07:26:03.044Z,99.90
2022-11-29T07:29:04.722Z,99.90
2022-11-29T07:32:14.560Z,99.90
2022-11-29T07:35:21.529Z,99.90
2022-11-29T07:38:13.940Z,99.90
2022-11-29T07:41:00.250Z,99.90
2022-11-29T07:43:45.755Z,99.90
2022-11-29T07:46:12.685Z,99.90
2022-11-29T07:48:39.525Z,99.90
2022-11-29T07:51:08.415Z,99.90
2022-11-29T07:53:42.105Z,99.90
2022-11-29T07:56:12.434Z,99.90
2022-11-29T07:58:39.687Z,99.90
2022-11-29T08:01:06.752Z,99.90
2022-11-29T08:03:35.445Z,99.90
2022-11-29T08:06:02.939Z,99.90
2022-11-29T08:08:29.775Z,99.90
2022-11-29T08:10:56.550Z,99.90
2022-11-29T08:13:23.496Z,99.90
2022-11-29T08:15:50.296Z,99.90
2022-11-29T08:18:17.685Z,99.90
2022-11-29T08:20:46.172Z,99.90
2022-11-29T08:23:14.424Z,99.90
2022-11-29T08:25:41.467Z,99.90
2022-11-29T08:28:09.826Z,99.90
2022-11-29T08:30:37.069Z,99.90
2022-11-29T08:33:04.587Z,99.90
2022-11-29T08:35:31.619Z,99.90
2022-11-29T08:37:58.420Z,99.90
2022-11-29T08:40:25.398Z,99.90
2022-11-29T08:42:52.170Z,99.90
2022-11-29T08:45:19.033Z,99.90
2022-11-29T08:47:45.872Z,99.90
2022-11-29T08:50:17.289Z,99.90
2022-11-29T08:53:06.537Z,99.90
2022-11-29T08:55:40.586Z,99.90
2022-11-29T08:58:10.978Z,99.90
2022-11-29T09:00:39.702Z,99.90
2022-11-29T09:03:26.481Z,99.90
2022-11-29T09:05:55.127Z,99.90
2022-11-29T09:08:22.622Z,99.90
2022-11-29T09:10:49.835Z,99.90
2022-11-29T09:13:18.617Z,99.90
2022-11-29T09:15:46.803Z,99.90
2022-11-29T09:18:13.648Z,99.90
2022-11-29T09:20:44.027Z,99.90
2022-11-29T09:23:12.054Z,99.90
2022-11-29T09:25:38.895Z,99.90
2022-11-29T09:28:05.780Z,99.90
2022-11-29T09:30:34.965Z,99.90
2022-11-29T09:33:05.139Z,99.90
2022-11-29T09:35:33.036Z,99.90
2022-11-29T09:37:59.888Z,99.90
2022-11-29T09:40:37.587Z,99.90
2022-11-29T09:43:34.058Z,99.90
2022-11-29T09:46:33.586Z,99.90
2022-11-29T09:49:09.261Z,99.90
2022-11-29T09:52:20.142Z,99.90
2022-11-29T09:55:36.942Z,99.90
2022-11-29T09:58:06.370Z,99.90
2022-11-29T10:01:01.797Z,99.90
2022-11-29T10:03:42.785Z,99.90
2022-11-29T10:06:23.493Z,99.90
2022-11-29T10:09:30.930Z,99.90
2022-11-29T10:12:21.709Z,99.90
2022-11-29T10:15:34.483Z,99.90
2022-11-29T10:18:30.584Z,99.90
2022-11-29T10:21:05.385Z,99.90
2022-11-29T10:23:54.206Z,99.90
2022-11-29T10:26:22.988Z,99.90
2022-11-29T10:28:49.828Z,99.90
2022-11-29T10:31:22.538Z,99.90
2022-11-29T10:33:50.635Z,99.90
2022-11-29T10:36:29.778Z,99.90
2022-11-29T10:39:03.482Z,99.90
2022-11-29T10:41:30.311Z,99.90
2022-11-29T10:43:59.204Z,99.90
2022-11-29T10:46:35.537Z,99.90
2022-11-29T10:49:14.562Z,99.90
2022-11-29T10:51:41.454Z,99.90
2022-11-29T10:54:40.085Z,99.90
2022-11-29T10:57:22.308Z,99.90
2022-11-29T11:00:08.624Z,99.90
2022-11-29T11:02:36.683Z,99.90
2022-11-29T11:05:12.959Z,99.90
2022-11-29T11:07:39.887Z,99.90
2022-11-29T11:10:26.731Z,99.90
2022-11-29T11:13:07.069Z,99.90
2022-11-29T11:15:34.400Z,99.90
2022-11-29T11:18:06.205Z,99.90
2022-11-29T11:20:39.243Z,99.90
2022-11-29T11:23:07.928Z,99.90
2022-11-29T11:25:38.975Z,99.90
2022-11-29T11:28:21.654Z,99.90
2022-11-29T11:31:05.536Z,99.90
2022-11-29T11:33:35.525Z,99.90
2022-11-29T11:36:11.667Z,99.90
2022-11-29T11:38:56.877Z,99.90
2022-11-29T11:41:52.805Z,99.90
2022-11-29T11:44:53.625Z,99.90
2022-11-29T11:47:27.799Z,99.90
2022-11-29T11:50:02.061Z,99.90
2022-11-29T11:52:54.965Z,99.90
2022-11-29T11:55:21.625Z,99.90
2022-11-29T11:58:09.348Z,99.90
2022-11-29T12:01:05.631Z,99.90
2022-11-29T12:04:12.957Z,99.90
2022-11-29T12:06:58.439Z,99.90
2022-11-29T12:09:40.431Z,99.90
2022-11-29T12:12:32.733Z,99.90
2022-11-29T12:15:25.936Z,99.90
2022-11-29T12:18:38.010Z,99.90
2022-11-29T12:21:14.295Z,99.90
2022-11-29T12:23:53.734Z,99.90
2022-11-29T12:26:58.515Z,99.90
2022-11-29T12:29:31.674Z,99.90
2022-11-29T12:32:33.625Z,99.90
2022-11-29T12:35:41.713Z,99.90
2022-11-29T12:38:24.295Z,99.90
2022-11-29T12:41:50.943Z,99.90
2022-11-29T12:44:29.973Z,99.90
2022-11-29T12:50:07.757Z,99.90
2022-11-29T12:52:48.407Z,99.90
2022-11-29T12:55:49.129Z,99.90
2022-11-29T12:58:46.995Z,99.90
2022-11-29T13:01:35.379Z,99.90
2022-11-29T13:04:27.639Z,99.90
2022-11-29T13:07:03.516Z,99.90
2022-11-29T13:09:58.302Z,99.90
2022-11-29T13:12:42.253Z,99.90
2022-11-29T13:15:18.956Z,99.90
2022-11-29T13:18:21.517Z,99.90
2022-11-29T13:21:14.434Z,99.90
2022-11-29T13:24:15.016Z,99.90
2022-11-29T13:26:43.495Z,99.90
2022-11-29T13:29:17.864Z,99.90
2022-11-29T13:31:46.923Z,99.90
2022-11-29T13:34:32.888Z,99.90
2022-11-29T13:37:23.393Z,99.90
2022-11-29T13:40:04.890Z,99.90
2022-11-29T13:42:58.749Z,99.90
2022-11-29T13:45:42.363Z,99.90
2022-11-29T13:48:49.977Z,99.90
2022-11-29T13:51:33.119Z,99.90
2022-11-29T13:54:03.693Z,99.90
2022-11-29T13:56:46.299Z,99.90
2022-11-29T13:59:23.236Z,99.90
2022-11-29T14:01:53.972Z,99.90
2022-11-29T14:04:38.720Z,99.90
2022-11-29T14:07:13.369Z,99.90
2022-11-29T14:10:05.013Z,99.90
2022-11-29T14:12:42.163Z,99.90
2022-11-29T14:15:23.182Z,99.90
2022-11-29T14:18:03.983Z,99.90
2022-11-29T14:20:30.648Z,99.90
2022-11-29T14:23:07.574Z,99.90
2022-11-29T14:25:52.655Z,99.90
2022-11-29T14:28:22.570Z,99.90
2022-11-29T14:30:51.647Z,99.90
2022-11-29T14:33:46.556Z,99.90
2022-11-29T16:32:42.864Z,98.20
2022-11-29T16:43:44.475Z,97.90
2022-11-29T17:00:35.985Z,95.30
2022-11-29T17:03:02.765Z,90.60
2022-11-29T17:05:30.122Z,86.80
2022-11-29T17:07:56.956Z,86.40
2022-11-29T17:10:25.638Z,86.30
2022-11-29T17:12:52.737Z,86.70
2022-11-29T17:15:19.527Z,88.90
2022-11-29T17:17:46.355Z,90.10
2022-11-29T17:20:13.738Z,90.60
2022-11-29T17:22:41.186Z,91.20
2022-11-29T17:25:08.733Z,91.90
2022-11-29T17:27:35.996Z,92.70
2022-11-29T17:30:04.482Z,93.20
2022-11-29T17:32:33.725Z,94.00
2022-11-29T17:35:00.455Z,94.40
2022-11-29T17:37:31.662Z,95.00
2022-11-29T17:39:58.420Z,95.40
2022-11-29T17:42:25.224Z,95.90
2022-11-29T17:44:52.670Z,96.50
2022-11-29T17:47:19.456Z,96.90
2022-11-29T17:49:46.445Z,97.50
2022-11-29T17:52:13.389Z,98.00
2022-11-29T17:54:40.151Z,98.40
2022-11-29T17:57:06.923Z,98.80
2022-11-29T17:59:33.678Z,99.40
2022-11-29T18:02:02.007Z,99.90
2022-11-29T18:04:28.850Z,99.90
2022-11-29T18:06:55.806Z,99.90
2022-11-29T18:09:22.700Z,99.90
2022-11-29T18:11:50.293Z,99.90
2022-11-29T18:14:23.592Z,99.90
2022-11-29T18:16:51.222Z,99.90
2022-11-29T18:19:20.868Z,99.90
2022-11-29T18:21:48.949Z,99.90
2022-11-29T18:24:16.194Z,99.90
2022-11-29T18:26:44.012Z,99.90
2022-11-29T18:29:10.885Z,99.90
2022-11-29T18:31:41.679Z,99.90
2022-11-29T18:34:10.590Z,99.90
2022-11-29T18:36:43.877Z,99.90
2022-11-29T18:39:16.937Z,99.90
2022-11-29T18:41:46.103Z,99.90
2022-11-29T18:44:15.466Z,99.90
2022-11-29T18:46:44.853Z,99.90
2022-11-29T18:49:17.952Z,99.90
2022-11-29T18:51:46.044Z,99.90
2022-11-29T18:54:14.420Z,99.90
2022-11-29T18:56:43.351Z,99.90
2022-11-29T18:59:18.974Z,99.90
2022-11-29T19:01:47.854Z,99.90
2022-11-29T19:04:20.657Z,99.90
2022-11-29T19:06:48.079Z,99.90
2022-11-29T19:09:19.739Z,99.90
2022-11-29T19:11:46.571Z,99.90
2022-11-29T19:14:13.979Z,99.90
2022-11-29T19:16:44.647Z,99.90
2022-11-29T19:19:11.716Z,99.90
2022-11-29T19:21:39.991Z,99.90
2022-11-29T19:24:13.758Z,99.90
2022-11-29T19:26:42.955Z,99.90
2022-11-29T19:29:09.826Z,99.90
2022-11-29T19:31:39.139Z,99.90
2022-11-29T19:34:06.636Z,99.90
2022-11-29T19:36:33.827Z,99.90
2022-11-29T19:39:02.029Z,99.90
2022-11-29T19:41:34.233Z,99.90
2022-11-29T19:44:05.250Z,99.90
2022-11-29T19:46:39.219Z,99.90
2022-11-29T19:49:07.659Z,99.90
2022-11-29T19:51:35.294Z,99.90
2022-11-29T19:54:07.032Z,99.90
2022-11-29T19:56:33.986Z,99.90
2022-11-29T19:59:00.795Z,99.90
2022-11-29T20:01:37.755Z,99.90
2022-11-29T20:04:04.896Z,99.90
2022-11-29T20:06:31.711Z,99.90
2022-11-29T20:08:58.684Z,99.90
2022-11-29T20:11:26.180Z,99.90
2022-11-29T20:14:03.044Z,99.90
2022-11-29T20:16:31.015Z,99.90
2022-11-29T20:18:58.504Z,99.90
2022-11-29T20:21:29.476Z,99.90
2022-11-29T20:24:06.129Z,99.90
2022-11-29T20:26:36.022Z,99.90
2022-11-29T20:29:05.638Z,99.90
2022-11-29T20:31:34.093Z,99.90
2022-11-29T20:34:01.649Z,99.90
2022-11-29T20:36:49.544Z,99.90
2022-11-29T20:39:57.249Z,99.90
2022-11-29T20:43:03.620Z,99.90
2022-11-29T20:45:30.755Z,99.90
2022-11-29T20:48:18.126Z,99.90
2022-11-29T20:50:53.852Z,99.90
2022-11-29T20:53:31.868Z,99.90
2022-11-29T20:55:58.748Z,99.90
2022-11-29T20:58:26.467Z,99.90
2022-11-29T21:00:54.760Z,99.90
2022-11-29T21:03:23.554Z,99.90
2022-11-29T21:05:52.012Z,99.90
2022-11-29T21:08:22.954Z,99.90
2022-11-29T21:10:50.564Z,99.90
2022-11-29T21:13:20.195Z,99.90
2022-11-29T21:15:48.289Z,99.90
2022-11-29T21:18:29.628Z,99.90
2022-11-29T21:21:24.961Z,99.90
2022-11-29T21:24:18.091Z,99.90
2022-11-29T21:26:51.165Z,99.90
2022-11-29T21:29:18.981Z,99.90
2022-11-29T21:31:48.297Z,99.90
2022-11-29T21:34:15.057Z,99.90
2022-11-29T21:36:42.247Z,99.90
2022-11-29T21:39:13.356Z,99.90
2022-11-29T21:41:40.150Z,99.90
2022-11-29T21:44:07.928Z,99.90
2022-11-29T21:46:35.536Z,99.90
2022-11-29T21:49:02.396Z,99.90
2022-11-29T21:51:29.160Z,99.90
2022-11-29T21:53:55.907Z,99.90
2022-11-29T21:56:22.763Z,99.90
2022-11-29T21:58:49.560Z,99.90
2022-11-29T22:01:19.524Z,99.90
2022-11-29T22:03:46.589Z,99.90
2022-11-29T22:06:20.656Z,99.90
2022-11-29T22:08:48.491Z,99.90
2022-11-29T22:11:31.084Z,99.90
2022-11-29T22:14:15.976Z,99.90
2022-11-29T22:17:09.132Z,99.90
2022-11-29T22:19:36.360Z,99.90
2022-11-29T22:22:06.458Z,99.90
2022-11-29T22:24:36.249Z,99.90
2022-11-29T22:27:03.170Z,99.90
2022-11-29T22:29:30.114Z,99.90
2022-11-29T22:31:57.449Z,99.90
2022-11-29T22:34:26.660Z,99.90
2022-11-29T22:36:53.567Z,99.90
2022-11-29T22:39:20.357Z,99.90
2022-11-29T22:41:53.580Z,99.90
2022-11-29T22:44:21.660Z,99.90
2022-11-29T22:46:48.568Z,99.90
2022-11-29T22:49:15.658Z,99.90
2022-11-29T22:51:42.750Z,99.90
2022-11-29T22:54:11.537Z,99.90
2022-11-29T22:56:40.789Z,99.90
2022-11-29T22:59:08.200Z,99.90
2022-11-29T23:01:38.948Z,99.90
2022-11-29T23:04:08.187Z,99.90
2022-11-29T23:06:41.043Z,99.90
2022-11-29T23:09:15.212Z,99.90
2022-11-29T23:11:44.594Z,99.90
2022-11-29T23:14:12.503Z,99.90
2022-11-29T23:16:39.563Z,99.90
2022-11-29T23:19:06.603Z,99.90
2022-11-29T23:21:38.075Z,99.90
2022-11-29T23:24:06.249Z,99.90
2022-11-29T23:26:43.934Z,99.90
2022-11-29T23:29:14.923Z,99.90
2022-11-29T23:31:42.519Z,99.90
2022-11-29T23:34:09.830Z,99.90
2022-11-29T23:36:36.721Z,99.90
2022-11-29T23:39:04.508Z,99.90
2022-11-29T23:41:31.324Z,99.90
2022-11-29T23:43:59.608Z,99.90
2022-11-29T23:46:26.624Z,99.90
2022-11-29T23:48:53.587Z,99.90
2022-11-29T23:51:20.594Z,99.90
2022-11-29T23:53:53.694Z,99.90
2022-11-29T23:56:21.504Z,99.90
2022-11-29T23:58:48.919Z,99.90
